Time;durP1;ratioP1;P1;durP2;ratioP2;P2;SDS_P1;SDS_P2;PMS_P1;PMS_P2;Temp;Humidity;BMP_temperature;BMP_pressure;BME280_temperature;BME280_humidity;BME280_pressure;Samples;Min_cycle;Max_cycle;Signal;HPM_P1;HPM_P2
2021/04/20 04:15:14;;;;;;;43.70;30.40;;;;;;;4.16;84.03;97677.09;1890065;76;22534;-65
2021/04/20 04:17:45;;;;;;;27.45;21.75;;;;;;;4.17;84.00;97671.27;1855939;77;21065;-64
2021/04/20 04:20:14;;;;;;;22.70;17.07;;;;;;;4.25;84.00;97673.42;1861057;77;21344;-63
2021/04/20 04:23:08;;;;;;;19.32;15.08;;;;;;;4.33;83.94;97674.27;1860891;77;20942;-64
2021/04/20 04:25:40;;;;;;;18.07;14.98;;;;;;;4.43;83.95;97664.50;1861467;77;20931;-64
2021/04/20 04:28:09;;;;;;;18.37;15.80;;;;;;;4.60;83.96;97676.23;1829116;77;20911;-63
2021/04/20 04:30:38;;;;;;;21.05;15.45;;;;;;;4.76;83.85;97675.23;1861034;77;20990;-66
2021/04/20 04:33:07;;;;;;;18.90;14.63;;;;;;;4.92;83.70;97680.88;1860940;77;21352;-64
2021/04/20 04:35:36;;;;;;;21.12;13.55;;;;;;;5.09;83.53;97677.45;1860881;77;20955;-66
2021/04/20 04:38:04;;;;;;;11.75;7.80;;;;;;;5.27;83.40;97682.29;1861000;77;21246;-66
2021/04/20 04:40:33;;;;;;;8.63;7.15;;;;;;;5.43;83.10;97675.93;1796887;77;20867;-64
2021/04/20 04:43:02;;;;;;;8.83;7.40;;;;;;;5.62;82.81;97678.86;1861234;77;20926;-66
2021/04/20 04:45:31;;;;;;;11.50;7.65;;;;;;;5.77;82.17;97676.73;1860982;77;21501;-64
2021/04/20 04:48:01;;;;;;;7.87;7.10;;;;;;;5.90;81.69;97672.23;1861177;77;20943;-66
2021/04/20 04:50:30;;;;;;;10.75;7.53;;;;;;;6.02;81.02;97672.75;1828344;77;20915;-65
2021/04/20 04:52:58;;;;;;;10.75;8.00;;;;;;;6.08;80.56;97672.46;1860915;77;20966;-64
2021/04/20 04:55:27;;;;;;;8.08;6.60;;;;;;;6.13;80.19;97669.80;1860989;77;20974;-65
2021/04/20 04:57:58;;;;;;;12.18;7.35;;;;;;;6.19;79.95;97673.25;1860990;77;21446;-65
2021/04/20 05:00:28;;;;;;;11.25;7.83;;;;;;;6.27;79.43;97675.34;1860895;77;20986;-65
2021/04/20 05:02:56;;;;;;;11.88;8.35;;;;;;;6.32;79.07;97667.89;1860946;77;20993;-64
2021/04/20 05:05:26;;;;;;;11.25;7.72;;;;;;;6.37;78.67;97666.02;1828403;77;20974;-65
2021/04/20 05:07:59;;;;;;;12.63;8.83;;;;;;;6.41;78.31;97663.07;1861059;77;20998;-66
2021/04/20 05:10:28;;;;;;;12.98;8.28;;;;;;;6.46;78.03;97656.41;1860980;77;21255;-63
2021/04/20 05:12:57;;;;;;;15.43;8.93;;;;;;;6.54;77.70;97664.37;1860873;77;21553;-67
2021/04/20 05:15:26;;;;;;;13.18;9.00;;;;;;;6.60;77.45;97660.08;1849876;77;21406;-66
2021/04/20 05:17:55;;;;;;;18.90;10.43;;;;;;;6.68;77.22;97662.19;1849913;77;21180;-69
2021/04/20 05:20:25;;;;;;;15.30;11.35;;;;;;;6.81;77.00;97659.45;1850063;77;21639;-65
2021/04/20 05:22:56;;;;;;;14.35;9.33;;;;;;;6.92;76.73;97658.88;1849997;77;21468;-66
2021/04/20 05:25:24;;;;;;;11.88;8.25;;;;;;;7.02;76.40;97654.28;1849560;77;20983;-66
2021/04/20 05:27:53;;;;;;;14.53;9.28;;;;;;;7.08;75.69;97655.05;1849288;77;20939;-65
2021/04/20 05:30:23;;;;;;;12.85;8.25;;;;;;;7.09;75.31;97657.99;1849286;77;20927;-64
2021/04/20 05:32:52;;;;;;;15.43;7.90;;;;;;;7.08;74.93;97659.05;1849306;77;20934;-63
2021/04/20 05:35:23;;;;;;;9.23;6.97;;;;;;;7.08;74.55;97653.72;1849241;77;21132;-65
2021/04/20 05:37:52;;;;;;;11.75;7.20;;;;;;;7.08;74.42;97655.05;1849282;77;21448;-67
2021/04/20 05:40:25;;;;;;;11.35;6.50;;;;;;;7.11;74.06;97652.65;1849262;77;20930;-66
2021/04/20 05:42:54;;;;;;;11.00;6.83;;;;;;;7.16;73.85;97657.15;1849041;77;20923;-63
2021/04/20 05:45:23;;;;;;;11.85;7.60;;;;;;;7.22;73.58;97653.37;1849308;77;20958;-66
2021/04/20 05:47:53;;;;;;;11.78;7.80;;;;;;;7.31;73.37;97658.36;1849316;77;21437;-67
2021/04/20 05:50:28;;;;;;;12.60;8.65;;;;;;;7.37;73.09;97658.05;1848912;77;20947;-64
2021/04/20 05:53:00;;;;;;;13.98;10.28;;;;;;;7.45;72.86;97655.33;1849412;77;20971;-70
2021/04/20 05:55:29;;;;;;;15.40;9.63;;;;;;;7.55;72.61;97645.94;1849845;77;20983;-63
2021/04/20 05:57:58;;;;;;;14.55;8.63;;;;;;;7.66;72.37;97645.30;1850426;77;20966;-64
2021/04/20 06:00:27;;;;;;;11.75;7.95;;;;;;;7.77;71.79;97640.97;1849327;77;21388;-66
2021/04/20 06:02:56;;;;;;;17.92;8.55;;;;;;;7.86;71.36;97644.61;1849281;77;21421;-64
2021/04/20 06:05:28;;;;;;;11.05;8.10;;;;;;;7.97;70.99;97646.09;1849281;77;21160;-66
2021/04/20 06:08:00;;;;;;;15.58;9.45;;;;;;;8.08;70.64;97643.58;1849266;77;20931;-63
2021/04/20 06:10:31;;;;;;;12.75;6.78;;;;;;;8.21;70.43;97641.59;1839045;77;20923;-66
2021/04/20 06:13:02;;;;;;;12.88;6.62;;;;;;;8.35;69.81;97635.06;1849788;77;21300;-63
2021/04/20 06:15:32;;;;;;;10.05;6.00;;;;;;;8.48;69.34;97634.93;1826571;77;21089;-69
2021/04/20 06:18:01;;;;;;;13.85;6.00;;;;;;;8.60;68.86;97637.96;1849251;76;20980;-65
2021/04/20 06:20:30;;;;;;;11.40;5.60;;;;;;;8.72;68.20;97643.69;1835024;78;21157;-68
2021/04/20 06:22:59;;;;;;;13.08;5.62;;;;;;;8.80;67.14;97640.39;1758940;80;21519;-65
2021/04/20 06:25:27;;;;;;;8.33;5.53;;;;;;;8.88;66.89;97637.06;1762932;81;21374;-67
2021/04/20 06:27:56;;;;;;;8.15;4.75;;;;;;;8.95;65.96;97640.98;1763218;81;21249;-67
2021/04/20 06:30:25;;;;;;;7.30;4.83;;;;;;;8.99;65.16;97633.20;1764448;81;21160;-65
2021/04/20 06:32:54;;;;;;;7.53;5.40;;;;;;;9.00;64.92;97634.77;1763456;81;21212;-63
2021/04/20 06:35:24;;;;;;;8.40;5.55;;;;;;;9.01;64.40;97636.38;1764509;81;21184;-63
2021/04/20 06:37:53;;;;;;;6.92;5.20;;;;;;;9.01;64.61;97635.57;1764047;81;21398;-64
2021/04/20 06:40:34;;;;;;;10.10;5.45;;;;;;;9.04;64.56;97634.47;1763920;81;21200;-67
2021/04/20 06:43:07;;;;;;;10.78;6.28;;;;;;;9.08;64.54;97638.14;1762812;80;21600;-64
2021/04/20 06:46:00;;;;;;;7.22;5.28;;;;;;;9.10;64.42;97634.64;1807813;78;21157;-65
2021/04/20 06:48:47;;;;;;;6.90;5.42;;;;;;;9.12;63.96;97632.47;1685814;84;21214;-65
2021/04/20 06:51:23;;;;;;;9.28;5.90;;;;;;;9.10;63.59;97630.63;1718343;83;21390;-65
2021/04/20 06:54:21;;;;;;;6.33;5.55;;;;;;;9.15;64.04;97628.42;1717195;83;21006;-67
2021/04/20 06:57:04;;;;;;;10.75;6.60;;;;;;;9.20;63.18;97625.69;1716875;82;20955;-64
2021/04/20 06:59:49;;;;;;;14.10;6.12;;;;;;;9.20;63.29;97629.69;1713332;83;21038;-66
2021/04/20 07:03:07;;;;;;;10.38;5.67;;;;;;;9.23;63.48;97633.13;1702991;83;20931;-67
2021/04/20 07:05:44;;;;;;;7.37;5.58;;;;;;;9.30;63.05;97620.20;1713109;83;22200;-64
2021/04/20 07:08:20;;;;;;;10.98;6.00;;;;;;;9.37;63.00;97628.08;1712877;83;21038;-67
2021/04/20 07:10:49;;;;;;;9.00;5.37;;;;;;;9.44;63.24;97621.81;1713043;83;20952;-65
2021/04/20 07:13:26;;;;;;;10.63;6.87;;;;;;;9.55;62.15;97618.45;1712967;83;21090;-65
2021/04/20 07:15:58;;;;;;;6.87;5.75;;;;;;;9.60;62.17;97620.52;1713143;83;20963;-66
2021/04/20 07:19:22;;;;;;;9.05;6.35;;;;;;;9.68;61.65;97621.70;1719534;83;21110;-66
2021/04/20 07:22:25;;;;;;;9.88;5.65;;;;;;;9.74;62.03;97627.77;1736013;82;20956;-65
2021/04/20 07:25:09;;;;;;;9.20;6.40;;;;;;;9.80;62.05;97623.37;1733072;82;21034;-67
2021/04/20 07:28:37;;;;;;;7.37;5.40;;;;;;;9.88;61.88;97621.91;1714302;81;21542;-64
2021/04/20 07:31:38;;;;;;;7.70;4.50;;;;;;;9.92;61.00;97616.21;1706304;84;21148;-68
2021/04/20 07:34:38;;;;;;;14.28;6.60;;;;;;;9.97;59.24;97616.13;1700759;83;21423;-67
2021/04/20 07:37:51;;;;;;;13.48;6.08;;;;;;;9.99;59.03;97620.09;1706076;84;21017;-65
2021/04/20 07:41:08;;;;;;;11.53;5.78;;;;;;;10.06;58.40;97615.16;1706242;84;20950;-68
2021/04/20 07:44:29;;;;;;;10.55;5.78;;;;;;;10.20;57.58;97628.03;1706416;84;20966;-67
2021/04/20 07:47:00;;;;;;;8.10;5.60;;;;;;;10.24;57.45;97616.20;1670774;84;21128;-67
2021/04/20 07:50:05;;;;;;;8.25;5.37;;;;;;;10.32;57.23;97606.13;1640135;87;21209;-67
2021/04/20 07:53:00;;;;;;;7.55;5.37;;;;;;;10.38;57.66;97603.62;1701762;84;20978;-66
2021/04/20 07:55:35;;;;;;;8.60;5.80;;;;;;;10.46;56.17;97608.26;1706288;84;21104;-66
2021/04/20 07:58:06;;;;;;;10.95;6.55;;;;;;;10.50;56.15;97606.59;1706141;84;21147;-67
2021/04/20 08:00:38;;;;;;;7.85;5.65;;;;;;;10.66;55.28;97599.83;1706246;84;21551;-67
2021/04/20 08:03:26;;;;;;;10.28;5.62;;;;;;;10.66;55.50;97601.17;1706121;84;21212;-67
2021/04/20 08:06:10;;;;;;;10.55;6.05;;;;;;;10.60;55.50;97595.66;1706078;84;21017;-68
2021/04/20 08:08:51;;;;;;;8.00;6.42;;;;;;;10.60;55.28;97593.55;1701907;84;20950;-66
2021/04/20 08:11:29;;;;;;;10.70;7.15;;;;;;;10.62;55.51;97589.45;1706225;84;20970;-67
2021/04/20 08:14:35;;;;;;;9.98;5.62;;;;;;;10.70;55.81;97586.08;1696751;84;21092;-68
2021/04/20 08:17:44;;;;;;;8.35;5.97;;;;;;;10.79;55.49;97589.62;1701160;84;21151;-64
2021/04/20 08:20:15;;;;;;;9.15;6.22;;;;;;;10.81;55.33;97588.77;1722033;81;21201;-65
2021/04/20 08:22:43;;;;;;;11.90;6.42;;;;;;;10.80;55.38;97597.12;1729770;83;21013;-64
2021/04/20 08:25:38;;;;;;;9.10;6.15;;;;;;;10.76;55.01;97592.90;1755950;81;21063;-66
2021/04/20 08:28:22;;;;;;;13.15;7.12;;;;;;;10.72;55.15;97593.27;1729231;83;21460;-68
2021/04/20 08:30:56;;;;;;;11.73;7.10;;;;;;;10.70;55.34;97591.97;1756254;81;21381;-64
2021/04/20 08:33:29;;;;;;;9.03;6.55;;;;;;;10.63;55.91;97592.39;1728446;83;21000;-69
2021/04/20 08:36:28;;;;;;;12.35;8.03;;;;;;;10.62;55.96;97590.78;1707561;83;21145;-65
2021/04/20 08:39:29;;;;;;;13.65;8.65;;;;;;;10.61;56.27;97585.20;1704948;81;21547;-63
2021/04/20 08:42:28;;;;;;;10.65;8.45;;;;;;;10.63;56.61;97586.23;1650506;84;21550;-66
2021/04/20 08:45:20;;;;;;;12.15;8.25;;;;;;;10.72;55.84;97589.24;1756094;81;22189;-67
2021/04/20 08:48:19;;;;;;;10.10;8.20;;;;;;;10.79;56.03;97589.62;1752001;81;21095;-66
2021/04/20 08:51:04;;;;;;;11.60;8.28;;;;;;;10.88;55.80;97582.45;1731325;82;21540;-68
2021/04/20 08:54:02;;;;;;;9.53;7.90;;;;;;;11.08;55.03;97581.77;1699628;84;21208;-65
2021/04/20 08:56:40;;;;;;;11.88;8.03;;;;;;;11.24;54.70;97585.67;1697822;84;21259;-65
2021/04/20 08:59:32;;;;;;;9.25;7.70;;;;;;;11.41;54.00;97579.91;1698405;84;21235;-64
2021/04/20 09:02:23;;;;;;;12.10;7.35;;;;;;;11.64;53.40;97571.28;1699676;83;21260;-68
2021/04/20 09:05:19;;;;;;;7.45;6.40;;;;;;;11.82;52.44;97577.59;1685744;84;21224;-64
2021/04/20 09:08:23;;;;;;;7.28;6.08;;;;;;;11.80;51.92;97571.16;1698685;84;21063;-64
2021/04/20 09:11:21;;;;;;;6.42;5.83;;;;;;;11.80;51.25;97567.14;1701241;84;21589;-67
2021/04/20 09:14:16;;;;;;;7.17;5.35;;;;;;;11.81;51.90;97568.73;1687998;84;21131;-65
2021/04/20 09:17:11;;;;;;;7.62;5.37;;;;;;;11.84;50.23;97564.10;1696472;84;20921;-64
2021/04/20 09:19:57;;;;;;;8.85;4.85;;;;;;;11.83;49.72;97557.14;1700476;84;21092;-65
2021/04/20 09:22:58;;;;;;;12.47;5.70;;;;;;;12.04;49.78;97546.65;1700798;84;21092;-68
2021/04/20 09:26:05;;;;;;;10.60;4.87;;;;;;;12.36;48.87;97539.02;1688610;84;21149;-67
2021/04/20 09:28:40;;;;;;;6.30;4.37;;;;;;;12.71;47.99;97533.73;1694459;84;21370;-67
2021/04/20 09:31:18;;;;;;;8.13;4.28;;;;;;;12.95;47.79;97533.49;1669343;86;20987;-65
2021/04/20 09:33:54;;;;;;;5.45;4.45;;;;;;;13.08;46.26;97535.83;1694330;84;21116;-66
2021/04/20 09:36:23;;;;;;;8.40;5.10;;;;;;;13.05;46.77;97532.39;1669383;86;21223;-64
2021/04/20 09:38:51;;;;;;;4.85;4.35;;;;;;;13.01;47.37;97532.80;1664706;86;21124;-66
2021/04/20 09:41:30;;;;;;;4.75;4.28;;;;;;;12.93;47.86;97512.86;1669393;86;21375;-65
2021/04/20 09:44:13;;;;;;;4.50;3.85;;;;;;;12.83;47.43;97519.92;1664736;86;21127;-67
2021/04/20 09:46:57;;;;;;;8.55;3.90;;;;;;;12.56;47.39;97522.08;1680690;83;21166;-68
2021/04/20 09:50:00;;;;;;;10.17;4.00;;;;;;;12.26;48.26;97525.91;1664818;84;21172;-67
2021/04/20 09:52:56;;;;;;;8.38;4.33;;;;;;;12.08;50.03;97526.92;1639049;85;21127;-68
2021/04/20 09:55:36;;;;;;;6.33;4.10;;;;;;;11.96;51.90;97521.38;1674715;85;21205;-68
2021/04/20 09:58:06;;;;;;;7.42;4.03;;;;;;;11.95;50.85;97521.12;1669037;86;21607;-65
2021/04/20 10:00:39;;;;;;;6.12;3.85;;;;;;;11.89;49.87;97525.06;1674568;85;21573;-65
2021/04/20 10:03:26;;;;;;;6.80;3.95;;;;;;;11.76;49.40;97525.94;1675409;85;21160;-68
2021/04/20 10:06:10;;;;;;;9.03;3.90;;;;;;;11.64;50.47;97530.50;1675901;85;21033;-66
2021/04/20 10:09:05;;;;;;;15.18;4.58;;;;;;;11.65;52.28;97527.28;1669209;86;21164;-65
2021/04/20 10:12:09;;;;;;;14.63;3.95;;;;;;;11.71;52.10;97528.75;1674502;85;21053;-64
2021/04/20 10:15:05;;;;;;;5.83;3.05;;;;;;;11.71;52.08;97536.80;1674531;85;21112;-66
2021/04/20 10:18:02;;;;;;;4.78;2.00;;;;;;;11.48;51.79;97536.02;1674610;85;21045;-65
2021/04/20 10:20:51;;;;;;;3.20;1.60;;;;;;;11.20;51.21;97536.45;1648210;87;21128;-67
2021/04/20 10:24:00;;;;;;;3.25;2.10;;;;;;;11.05;51.50;97540.81;1674649;85;21480;-66
2021/04/20 10:26:47;;;;;;;6.35;2.42;;;;;;;11.00;51.12;97539.84;1587369;90;21182;-67
2021/04/20 10:29:48;;;;;;;5.17;2.15;;;;;;;10.93;50.93;97534.12;1673574;85;21624;-66
2021/04/20 10:32:45;;;;;;;3.80;2.17;;;;;;;10.92;50.85;97539.25;1632521;87;21120;-64
2021/04/20 10:35:24;;;;;;;5.95;3.60;;;;;;;10.94;51.49;97533.03;1651680;85;21234;-67
2021/04/20 10:38:01;;;;;;;5.78;3.80;;;;;;;11.02;52.32;97532.06;1668449;86;21173;-66
2021/04/20 10:40:36;;;;;;;4.03;3.62;;;;;;;11.15;52.77;97533.89;1674581;85;20987;-66
2021/04/20 10:43:07;;;;;;;6.45;3.92;;;;;;;11.31;52.63;97529.73;1668788;86;21558;-70
2021/04/20 10:45:36;;;;;;;11.63;5.17;;;;;;;11.41;51.98;97537.54;1674535;85;21052;-66
2021/04/20 10:48:06;;;;;;;10.13;4.17;;;;;;;11.50;52.84;97539.18;1683386;84;21177;-68
2021/04/20 10:50:37;;;;;;;10.23;3.12;;;;;;;11.59;54.35;97537.33;1697649;84;21164;-67
2021/04/20 10:53:43;;;;;;;5.12;2.90;;;;;;;11.67;53.46;97542.52;1697545;84;21005;-66
2021/04/20 10:56:14;;;;;;;5.95;3.60;;;;;;;11.65;53.95;97538.80;1754013;81;26591;-67
2021/04/20 10:58:48;;;;;;;7.90;6.33;;;;;;;11.58;54.63;97545.70;1727909;83;21088;-68
2021/04/20 11:01:27;;;;;;;5.22;4.65;;;;;;;11.56;54.93;97542.53;1704574;83;21164;-64
2021/04/20 11:03:59;;;;;;;6.30;4.15;;;;;;;11.66;55.68;97544.94;1730354;82;21324;-67
2021/04/20 11:07:06;;;;;;;4.83;4.17;;;;;;;11.69;56.48;97539.00;1750219;81;20997;-66
2021/04/20 11:09:35;;;;;;;3.37;2.98;;;;;;;11.64;57.68;97545.80;1720251;83;21656;-66
2021/04/20 11:12:42;;;;;;;4.15;3.08;;;;;;;11.45;56.48;97543.87;1720003;83;21499;-65
2021/04/20 11:15:26;;;;;;;2.50;2.30;;;;;;;11.21;57.41;97554.13;1752843;81;21532;-68
2021/04/20 11:18:00;;;;;;;2.30;2.10;;;;;;;10.78;57.17;97550.55;1752288;81;21437;-63
2021/04/20 11:20:42;;;;;;;2.60;2.40;;;;;;;10.38;59.49;97547.39;1750593;81;21012;-66
2021/04/20 11:23:22;;;;;;;3.40;2.75;;;;;;;10.13;59.85;97545.20;1706763;82;20958;-67
2021/04/20 11:26:05;;;;;;;2.60;2.30;;;;;;;10.05;60.64;97535.19;1752365;82;20947;-67
2021/04/20 11:28:52;;;;;;;3.20;2.90;;;;;;;10.10;60.38;97529.73;1751011;82;21147;-67
2021/04/20 11:31:25;;;;;;;5.17;3.90;;;;;;;10.22;60.39;97531.41;1751042;81;21209;-65
2021/04/20 11:34:16;;;;;;;4.40;3.70;;;;;;;10.34;59.57;97533.00;1750961;81;21207;-67
2021/04/20 11:36:54;;;;;;;5.87;3.98;;;;;;;10.42;59.16;97535.53;1750975;82;21871;-64
2021/04/20 11:39:37;;;;;;;3.33;3.00;;;;;;;10.53;59.64;97539.59;1750981;81;21183;-65
2021/04/20 11:42:35;;;;;;;3.40;3.10;;;;;;;10.67;59.30;97531.76;1751337;81;21172;-65
2021/04/20 11:45:20;;;;;;;3.70;3.02;;;;;;;10.77;58.67;97536.90;1752501;82;21527;-64
2021/04/20 11:48:11;;;;;;;5.95;3.62;;;;;;;10.93;59.67;97541.36;1752663;81;21176;-68
2021/04/20 11:50:56;;;;;;;4.20;3.67;;;;;;;11.06;58.97;97541.08;1723939;82;21160;-64
2021/04/20 11:53:26;;;;;;;3.62;3.30;;;;;;;11.14;59.15;97532.32;1751035;82;21063;-66
2021/04/20 11:55:59;;;;;;;4.25;3.83;;;;;;;11.18;57.94;97524.70;1752165;82;20942;-66
2021/04/20 13:09:39;;;;;;;11.00;6.10;;;;;;;11.05;64.70;97493.92;1848093;76;22665;-61
2021/04/20 13:12:12;;;;;;;8.93;6.17;;;;;;;11.16;65.35;97492.59;1813059;78;21006;-62
2021/04/20 13:14:40;;;;;;;10.53;6.78;;;;;;;11.37;65.44;97499.84;1816932;78;21185;-66
2021/04/20 13:17:09;;;;;;;13.93;6.45;;;;;;;11.55;64.58;97494.00;1816897;78;21006;-64
2021/04/20 13:19:39;;;;;;;7.72;4.92;;;;;;;11.66;64.46;97485.92;1787150;79;20987;-64
2021/04/20 13:22:07;;;;;;;4.40;4.00;;;;;;;11.73;63.56;97486.30;1787232;79;20991;-63
